首页
METAR-TAF:

METAR-TAF

机场 :

哥伦比亚, 南卡罗来纳州, 美国

纬度: 33-58-15N, 经度: 080-59-40W, 海拔: 64米

当前天气观测

该预报发布于19分钟前的17:53 UTC
风速6节,风向东北
温度 4°C
湿度 87%
气压 1019 hPa
能見度: 2.4公里
阴天层高于1100英尺
轻雾

METAR: KCUB 101753Z AUTO 04006KT 1 1/2SM BR OVC011 04/02 A3008 RMK AO2 SLP186 60001 T00440022 10050 20028 56002

时间: 13:12 (18:12 UTC)

预报

该预报发布于33分钟前的17:39 UTC
预报有效从10日的 18点(UTC)到 11日的 18点(UTC)
风速8节,风向北转东北
能見度: 6.4公里
阴天层高于1300英尺
轻雾
短暂存在
从 10日的 23点(UTC)到 11日的 02点(UTC)
能見度: 3.2公里
多云层高于700英尺
小雨, 雪
从 11日的 0200点(UTC)
风速5节,风向
能見度: 10公里
散云层高于700英尺
阴天层高于1500英尺
从 11日的 0800点(UTC)
风速4节,风向北转西北
能見度: 10公里
散云层高于700英尺
多云层高于5000英尺
从 11日的 1500点(UTC)
风速5节,风向西北
能見度: 10公里
散云层高于25000英尺

TAF: KCUB 101739Z 1018/1118 02008KT 4SM BR OVC013 TEMPO 1023/1102 2SM -RASN BKN007 FM110200 36005KT P6SM SCT007 OVC015 FM110800 33004KT P6SM SCT007 BKN050 FM111500 32005KT P6SM SCT250

超过4000个机场的气象观测和天气预报(METAR&TAF报告)。

可查询的气象台以黄色和红色小点在地图上表示。

将鼠标移到小点上方,可查看气象台名称。

然后点击查看天气观测和预报。

如需切换地图:点击带黑十字的绿色按钮放大地图;点击带横线的绿色按钮缩小地图;或者点击绿色箭头查看邻近地区的地图。


METAR-TAF: